createdAt,value
2022-11-26T00:01:19.255Z,91.24
2022-11-26T00:03:52.123Z,91.17
2022-11-26T00:06:29.815Z,91.15
2022-11-26T00:09:02.288Z,91.17
2022-11-26T00:11:34.340Z,91.18
2022-11-26T00:14:07.757Z,91.14
2022-11-26T00:16:39.915Z,91.11
2022-11-26T00:19:11.045Z,91.09
2022-11-26T00:21:43.357Z,91.08
2022-11-26T00:24:31.304Z,91.05
2022-11-26T00:27:02.342Z,91.10
2022-11-26T00:29:34.673Z,91.06
2022-11-26T00:32:08.544Z,91.02
2022-11-26T00:34:42.715Z,90.98
2022-11-26T00:37:25.105Z,91.00
2022-11-26T00:39:57.068Z,91.04
2022-11-26T00:42:27.649Z,91.02
2022-11-26T00:44:59.882Z,91.08
2022-11-26T00:47:32.319Z,91.06
2022-11-26T00:50:02.850Z,91.01
2022-11-26T00:52:35.240Z,91.02
2022-11-26T00:55:11.829Z,91.07
2022-11-26T00:57:42.540Z,91.03
2022-11-26T01:00:16.378Z,91.05
2022-11-26T01:02:49.574Z,91.08
2022-11-26T01:05:22.211Z,91.12
2022-11-26T01:07:54.346Z,91.13
2022-11-26T01:10:32.237Z,91.13
2022-11-26T01:13:03.247Z,91.18
2022-11-26T01:15:33.809Z,91.09
2022-11-26T01:18:16.665Z,91.14
2022-11-26T01:20:50.757Z,91.11
2022-11-26T01:23:22.228Z,91.13
2022-11-26T01:25:53.461Z,91.13
2022-11-26T01:28:23.997Z,91.14
2022-11-26T01:30:54.708Z,91.11
2022-11-26T01:33:25.293Z,91.12
2022-11-26T01:35:57.658Z,91.03
2022-11-26T01:38:28.123Z,91.10
2022-11-26T01:41:06.933Z,91.07
2022-11-26T01:43:44.479Z,91.10
2022-11-26T01:46:17.824Z,91.13
2022-11-26T01:48:51.447Z,91.16
2022-11-26T01:51:28.806Z,91.14
2022-11-26T01:54:01.645Z,91.13
2022-11-26T01:56:44.533Z,91.13
2022-11-26T01:59:24.754Z,91.18
2022-11-26T02:01:58.353Z,91.19
2022-11-26T02:04:38.492Z,91.17
2022-11-26T02:07:09.225Z,91.18
2022-11-26T02:09:40.086Z,91.12
2022-11-26T02:12:10.697Z,91.14
2022-11-26T02:14:44.154Z,91.16
2022-11-26T02:17:17.633Z,91.16
2022-11-26T02:20:15.460Z,91.17
2022-11-26T02:22:57.667Z,91.12
2022-11-26T02:25:50.858Z,91.12
2022-11-26T02:28:58.137Z,91.02
2022-11-26T02:31:38.084Z,91.07
2022-11-26T02:34:12.214Z,91.15
2022-11-26T02:36:58.067Z,91.20
2022-11-26T02:39:31.060Z,91.21
2022-11-26T02:42:04.394Z,91.18
2022-11-26T02:44:43.929Z,91.18
2022-11-26T02:47:17.996Z,90.99
2022-11-26T02:49:51.249Z,90.92
2022-11-26T02:52:24.322Z,91.03
2022-11-26T02:54:56.648Z,91.09
2022-11-26T02:57:30.187Z,91.14
2022-11-26T03:00:00.776Z,91.10
2022-11-26T03:02:37.705Z,91.13
2022-11-26T03:05:12.075Z,91.13
2022-11-26T03:07:44.994Z,91.10
2022-11-26T03:10:20.273Z,91.08
2022-11-26T03:12:50.827Z,91.15
2022-11-26T03:15:21.723Z,91.19
2022-11-26T03:17:53.993Z,91.19
2022-11-26T03:20:24.647Z,91.22
2022-11-26T03:22:55.177Z,91.24
2022-11-26T03:25:25.792Z,91.22
2022-11-26T03:27:57.495Z,91.24
2022-11-26T03:30:28.204Z,91.25
2022-11-26T03:32:59.169Z,91.25
2022-11-26T03:35:29.748Z,91.22
2022-11-26T03:38:02.662Z,91.21
2022-11-26T03:40:34.066Z,91.22
2022-11-26T03:43:04.633Z,91.23
2022-11-26T03:45:37.731Z,91.23
2022-11-26T03:48:09.812Z,91.11
2022-11-26T03:50:40.412Z,91.14
2022-11-26T03:53:12.507Z,91.12
2022-11-26T03:55:43.879Z,91.09
2022-11-26T03:58:15.944Z,91.05
2022-11-26T04:00:58.958Z,91.08
2022-11-26T04:03:33.840Z,91.15
2022-11-26T04:06:04.942Z,91.19
2022-11-26T04:08:36.795Z,91.22
2022-11-26T04:11:07.447Z,91.19
2022-11-26T04:13:39.070Z,91.20
2022-11-26T04:16:11.086Z,91.24
2022-11-26T04:18:41.599Z,91.18
2022-11-26T04:21:12.661Z,91.21
2022-11-26T04:23:48.005Z,91.23
2022-11-26T04:26:19.660Z,91.21
2022-11-26T04:28:51.623Z,91.24
2022-11-26T04:31:22.779Z,91.22
2022-11-26T04:33:54.485Z,91.19
2022-11-26T04:36:32.650Z,91.17
2022-11-26T04:39:03.387Z,91.15
2022-11-26T04:41:34.895Z,91.16
2022-11-26T04:44:06.575Z,91.15
2022-11-26T04:46:37.460Z,91.14
2022-11-26T04:49:09.953Z,91.12
2022-11-26T04:51:40.899Z,91.14
2022-11-26T04:54:13.132Z,91.13
2022-11-26T04:56:45.075Z,91.10
2022-11-26T04:59:15.630Z,91.10
2022-11-26T05:01:46.158Z,91.07
2022-11-26T05:04:18.607Z,91.03
2022-11-26T05:06:49.254Z,91.00
2022-11-26T05:09:20.027Z,91.00
2022-11-26T05:11:50.640Z,91.05
2022-11-26T05:14:21.220Z,91.04
2022-11-26T05:16:52.007Z,91.01
2022-11-26T05:19:22.636Z,90.96
2022-11-26T05:21:53.553Z,90.93
2022-11-26T05:24:24.185Z,90.86
2022-11-26T05:26:57.129Z,90.77
2022-11-26T05:29:26.937Z,90.75
2022-11-26T05:31:57.784Z,90.72
2022-11-26T05:34:28.491Z,90.62
2022-11-26T05:36:59.017Z,90.61
2022-11-26T05:39:30.074Z,90.59
2022-11-26T05:42:04.844Z,90.61
2022-11-26T05:44:33.325Z,90.63
2022-11-26T05:47:03.822Z,90.57
2022-11-26T05:49:34.310Z,90.51
2022-11-26T05:52:05.085Z,90.54
2022-11-26T05:54:37.570Z,90.51
2022-11-26T05:57:07.548Z,90.55
2022-11-26T05:59:39.063Z,90.52
2022-11-26T06:02:09.736Z,90.49
2022-11-26T06:04:40.604Z,90.48
2022-11-26T06:07:11.633Z,90.50
2022-11-26T06:09:42.242Z,90.52
2022-11-26T06:12:16.483Z,90.52
2022-11-26T06:14:47.200Z,90.56
2022-11-26T06:17:19.832Z,90.53
2022-11-26T06:19:50.366Z,90.48
2022-11-26T06:22:22.064Z,90.48
2022-11-26T06:24:53.878Z,90.48
2022-11-26T06:27:24.413Z,90.57
2022-11-26T06:29:54.872Z,90.52
2022-11-26T06:32:25.440Z,90.51
2022-11-26T06:34:56.002Z,90.58
2022-11-26T06:37:27.246Z,90.58
2022-11-26T06:39:57.768Z,90.54
2022-11-26T06:42:29.876Z,90.54
2022-11-26T06:45:00.567Z,90.55
2022-11-26T06:47:31.188Z,90.54
2022-11-26T06:50:05.149Z,90.64
2022-11-26T06:52:34.515Z,90.60
2022-11-26T06:55:05.350Z,90.63
2022-11-26T06:57:36.056Z,90.58
2022-11-26T07:00:09.235Z,90.56
2022-11-26T07:02:39.954Z,90.58
2022-11-26T07:05:11.757Z,90.50
2022-11-26T07:07:42.359Z,90.54
2022-11-26T07:10:13.748Z,90.57
2022-11-26T07:12:44.301Z,90.50
2022-11-26T07:15:16.556Z,90.39
2022-11-26T07:17:48.409Z,90.40
2022-11-26T07:20:19.489Z,90.26
2022-11-26T07:22:50.059Z,90.32
2022-11-26T07:25:20.613Z,90.37
2022-11-26T07:27:52.146Z,90.38
2022-11-26T07:30:22.907Z,90.25
2022-11-26T07:32:53.645Z,90.34
2022-11-26T07:35:24.456Z,90.36
2022-11-26T07:37:55.044Z,90.33
2022-11-26T07:40:25.472Z,90.33
2022-11-26T07:42:56.093Z,90.29
2022-11-26T07:45:28.776Z,90.30
2022-11-26T07:47:59.278Z,90.16
2022-11-26T07:50:30.013Z,90.07
2022-11-26T07:53:00.441Z,90.11
2022-11-26T07:55:31.024Z,90.12
2022-11-26T07:58:03.032Z,90.06
2022-11-26T08:00:34.092Z,90.03
2022-11-26T08:03:04.639Z,89.81
2022-11-26T08:05:35.191Z,89.76
2022-11-26T08:08:07.279Z,89.68
2022-11-26T08:10:38.188Z,89.63
2022-11-26T08:13:08.714Z,89.65
2022-11-26T08:15:40.230Z,89.69
2022-11-26T08:18:11.896Z,89.55
2022-11-26T08:20:42.497Z,89.47
2022-11-26T08:23:12.942Z,89.46
2022-11-26T08:26:06.000Z,89.39
2022-11-26T08:28:16.736Z,89.18
2022-11-26T08:30:47.627Z,89.14
2022-11-26T08:33:18.231Z,89.20
2022-11-26T08:36:06.223Z,88.91
2022-11-26T08:38:24.610Z,88.89
2022-11-26T08:40:56.117Z,88.76
2022-11-26T08:43:39.817Z,88.75
2022-11-26T08:46:00.720Z,88.50
2022-11-26T08:48:33.100Z,88.35
2022-11-26T08:51:07.040Z,88.32
2022-11-26T08:53:39.562Z,88.26
2022-11-26T08:56:13.141Z,88.43
2022-11-26T08:58:45.686Z,88.42
2022-11-26T09:01:21.790Z,88.22
2022-11-26T09:03:56.177Z,88.33
2022-11-26T09:06:29.591Z,87.96
2022-11-26T09:09:14.019Z,87.93
2022-11-26T09:11:57.361Z,88.16
2022-11-26T09:14:30.751Z,87.90
2022-11-26T09:17:01.771Z,87.98
2022-11-26T09:19:33.730Z,87.92
2022-11-26T09:22:05.821Z,87.96
2022-11-26T09:24:38.004Z,87.70
2022-11-26T09:27:10.269Z,88.04
2022-11-26T09:29:40.770Z,88.01
2022-11-26T09:32:31.079Z,88.01
2022-11-26T09:34:47.274Z,87.57
2022-11-26T09:37:19.086Z,87.57
2022-11-26T09:39:52.247Z,87.49
2022-11-26T09:42:31.429Z,87.41
2022-11-26T09:45:14.659Z,87.39
2022-11-26T09:47:48.179Z,87.37
2022-11-26T09:50:28.664Z,87.78
2022-11-26T09:53:02.231Z,87.59
2022-11-26T09:55:35.940Z,87.61
2022-11-26T09:58:27.491Z,87.53
2022-11-26T10:01:00.910Z,87.37
2022-11-26T10:03:42.379Z,86.87
2022-11-26T10:06:30.864Z,87.00
2022-11-26T10:09:10.039Z,86.93
2022-11-26T10:12:03.858Z,86.78
2022-11-26T10:14:52.419Z,86.38
2022-11-26T10:17:28.733Z,86.31
2022-11-26T10:20:11.223Z,86.43
2022-11-26T10:22:57.497Z,86.44
2022-11-26T10:25:31.567Z,86.63
2022-11-26T10:28:04.530Z,86.67
2022-11-26T10:30:35.176Z,86.90
2022-11-26T10:33:08.129Z,87.24
2022-11-26T10:35:42.568Z,87.22
2022-11-26T10:38:13.196Z,87.40
2022-11-26T10:40:45.283Z,87.64
2022-11-26T10:43:21.844Z,87.86
2022-11-26T10:45:56.941Z,88.04
2022-11-26T10:48:33.443Z,88.38
2022-11-26T10:51:28.230Z,88.79
2022-11-26T10:54:04.898Z,89.10
2022-11-26T10:56:45.600Z,89.07
2022-11-26T10:59:29.373Z,89.13
2022-11-26T11:02:04.832Z,89.19
2022-11-26T11:04:38.514Z,89.06
2022-11-26T11:07:12.611Z,89.13
2022-11-26T11:09:44.631Z,88.88
2022-11-26T11:12:22.855Z,88.90
2022-11-26T11:14:53.802Z,88.49
2022-11-26T11:17:35.892Z,88.28
2022-11-26T11:20:23.593Z,88.19
2022-11-26T11:23:04.854Z,87.71
2022-11-26T11:25:39.776Z,87.45
2022-11-26T11:28:23.973Z,87.52
2022-11-26T11:31:06.409Z,87.75
2022-11-26T11:33:38.811Z,87.49
2022-11-26T11:36:19.238Z,87.58
2022-11-26T11:38:54.155Z,87.59
2022-11-26T11:41:34.093Z,87.16
2022-11-26T11:44:22.830Z,87.25
2022-11-26T11:47:11.107Z,87.01
2022-11-26T11:49:53.294Z,86.67
2022-11-26T11:52:32.713Z,87.03
2022-11-26T11:55:25.462Z,86.64
2022-11-26T11:58:35.854Z,86.78
2022-11-26T12:01:15.090Z,86.53
2022-11-26T12:03:57.575Z,86.45
2022-11-26T12:06:48.146Z,86.63
2022-11-26T12:09:21.736Z,86.14
2022-11-26T12:12:03.035Z,86.12
2022-11-26T12:14:47.307Z,86.02
2022-11-26T12:17:33.198Z,86.01
2022-11-26T12:20:17.083Z,85.92
2022-11-26T12:23:02.377Z,85.94
2022-11-26T12:25:38.572Z,86.08
2022-11-26T12:28:23.208Z,85.74
2022-11-26T12:31:01.777Z,85.62
2022-11-26T12:33:43.038Z,85.94
2022-11-26T12:36:23.262Z,86.15
2022-11-26T12:38:58.160Z,86.30
2022-11-26T12:41:54.579Z,86.34
2022-11-26T12:44:31.951Z,86.10
2022-11-26T12:47:22.262Z,85.95
2022-11-26T12:50:07.922Z,85.62
2022-11-26T12:52:54.074Z,85.85
2022-11-26T12:55:37.797Z,85.67
2022-11-26T12:58:15.389Z,85.51
2022-11-26T13:00:46.963Z,85.25
2022-11-26T13:03:19.256Z,85.07
2022-11-26T13:06:09.421Z,85.39
2022-11-26T13:09:06.595Z,85.39
2022-11-26T13:11:49.797Z,85.61
2022-11-26T13:14:37.361Z,85.18
2022-11-26T13:17:17.162Z,85.58
2022-11-26T13:20:05.503Z,85.37
2022-11-26T13:22:42.355Z,85.09
2022-11-26T13:25:43.625Z,85.01
2022-11-26T13:28:20.631Z,85.42
2022-11-26T13:31:28.425Z,85.14
2022-11-26T13:34:20.238Z,85.35
2022-11-26T13:37:06.137Z,86.02
2022-11-26T13:39:52.609Z,85.93
2022-11-26T13:42:35.089Z,85.81
2022-11-26T13:45:26.697Z,86.27
2022-11-26T13:48:00.893Z,86.04
2022-11-26T13:50:34.517Z,86.09
2022-11-26T13:53:25.010Z,86.51
2022-11-26T13:55:55.949Z,86.48
2022-11-26T13:58:29.461Z,86.39
2022-11-26T14:01:20.115Z,86.60
2022-11-26T14:03:59.216Z,86.54
2022-11-26T14:06:34.641Z,86.59
2022-11-26T14:09:13.889Z,86.73
2022-11-26T14:11:52.304Z,86.83
2022-11-26T14:14:30.722Z,86.74
2022-11-26T14:17:07.679Z,86.13
2022-11-26T14:19:44.155Z,86.44
2022-11-26T14:22:23.691Z,86.44
2022-11-26T14:24:57.150Z,86.11
2022-11-26T14:27:36.654Z,86.43
2022-11-26T14:30:20.997Z,86.53
2022-11-26T14:33:01.639Z,86.73
2022-11-26T14:35:39.096Z,86.57
2022-11-26T14:38:26.848Z,85.99
2022-11-26T14:41:04.003Z,86.41
2022-11-26T14:43:36.467Z,86.68
2022-11-26T14:46:19.882Z,86.15
2022-11-26T14:48:52.616Z,86.59
2022-11-26T14:51:26.428Z,86.58
2022-11-26T14:54:01.119Z,86.39
2022-11-26T14:56:33.790Z,86.77
2022-11-26T14:59:05.635Z,86.80
2022-11-26T15:01:36.593Z,87.03
2022-11-26T15:04:08.556Z,87.37
2022-11-26T15:06:43.192Z,87.11
2022-11-26T15:09:21.795Z,86.80
2022-11-26T15:11:55.962Z,87.36
2022-11-26T15:14:52.697Z,87.02
2022-11-26T15:17:29.630Z,87.42
2022-11-26T15:20:04.983Z,87.42
2022-11-26T15:22:45.385Z,87.66
2022-11-26T15:25:24.886Z,87.91
2022-11-26T15:28:06.876Z,87.63
2022-11-26T15:30:39.151Z,88.00
2022-11-26T15:33:12.799Z,87.86
2022-11-26T15:35:44.644Z,87.86
2022-11-26T15:38:21.913Z,87.92
2022-11-26T15:40:59.726Z,87.15
2022-11-26T15:43:48.268Z,87.45
2022-11-26T15:46:21.915Z,87.64
2022-11-26T15:48:58.275Z,87.45
2022-11-26T15:51:40.386Z,87.43
2022-11-26T15:54:49.659Z,87.40
2022-11-26T15:57:08.154Z,87.26
2022-11-26T15:59:46.529Z,86.95
2022-11-26T16:02:26.086Z,87.21
2022-11-26T16:05:10.662Z,87.38
2022-11-26T16:07:38.887Z,87.17
2022-11-26T16:10:19.622Z,87.29
2022-11-26T16:13:11.812Z,87.41
2022-11-26T16:15:55.163Z,87.15
2022-11-26T16:18:29.932Z,86.79
2022-11-26T16:21:07.833Z,86.97
2022-11-26T16:23:38.503Z,86.97
2022-11-26T16:26:19.427Z,87.11
2022-11-26T16:28:51.283Z,87.23
2022-11-26T16:31:22.811Z,87.12
2022-11-26T16:33:55.741Z,86.75
2022-11-26T16:36:31.050Z,86.73
2022-11-26T16:39:01.480Z,86.82
2022-11-26T16:41:32.679Z,86.48
2022-11-26T16:44:05.854Z,86.28
2022-11-26T16:46:40.940Z,86.25
2022-11-26T16:49:12.014Z,85.91
2022-11-26T16:51:42.590Z,86.18
2022-11-26T16:54:14.597Z,86.01
2022-11-26T16:56:48.544Z,86.41
2022-11-26T16:59:23.849Z,86.51
2022-11-26T17:01:54.384Z,86.24
2022-11-26T17:04:28.649Z,86.26
2022-11-26T17:07:00.013Z,86.07
2022-11-26T17:09:33.711Z,85.80
2022-11-26T17:12:04.140Z,85.97
2022-11-26T17:14:37.057Z,85.37
2022-11-26T17:17:09.241Z,85.60
2022-11-26T17:19:41.884Z,85.47
2022-11-26T17:22:13.603Z,85.80
2022-11-26T17:24:44.258Z,86.01
2022-11-26T17:27:17.658Z,86.17
2022-11-26T17:29:48.886Z,86.08
2022-11-26T17:32:20.421Z,86.24
2022-11-26T17:34:52.276Z,86.52
2022-11-26T17:37:31.775Z,86.60
2022-11-26T17:40:03.044Z,86.98
2022-11-26T17:42:37.013Z,86.81
2022-11-26T17:45:08.585Z,86.82
2022-11-26T17:47:40.040Z,87.14
2022-11-26T17:50:28.547Z,87.49
2022-11-26T17:52:59.070Z,87.77
2022-11-26T17:55:29.713Z,87.82
2022-11-26T17:58:01.240Z,87.98
2022-11-26T18:00:32.073Z,88.08
2022-11-26T18:03:04.208Z,88.30
2022-11-26T18:05:39.103Z,87.68
2022-11-26T18:08:07.238Z,87.23
2022-11-26T18:10:43.579Z,87.78
2022-11-26T18:13:18.146Z,87.46
2022-11-26T18:15:48.857Z,87.64
2022-11-26T18:18:19.552Z,87.71
2022-11-26T18:20:50.668Z,87.75
2022-11-26T18:23:21.270Z,87.66
2022-11-26T18:25:53.272Z,87.92
2022-11-26T18:28:25.618Z,87.44
2022-11-26T18:30:59.817Z,87.62
2022-11-26T18:33:30.613Z,87.98
2022-11-26T18:36:02.530Z,88.24
2022-11-26T18:38:33.485Z,88.15
2022-11-26T18:41:06.369Z,88.32
2022-11-26T18:43:40.702Z,88.09
2022-11-26T18:46:17.289Z,87.82
2022-11-26T18:48:49.791Z,87.74
2022-11-26T18:51:20.617Z,87.99
2022-11-26T18:53:51.458Z,87.94
2022-11-26T18:56:24.194Z,87.82
2022-11-26T18:58:56.261Z,87.73
2022-11-26T19:01:30.622Z,87.44
2022-11-26T19:04:01.396Z,87.41
2022-11-26T19:06:34.202Z,87.23
2022-11-26T19:09:15.251Z,87.59
2022-11-26T19:11:47.570Z,87.37
2022-11-26T19:14:18.189Z,87.36
2022-11-26T19:16:51.253Z,87.24
2022-11-26T19:19:22.545Z,87.41
2022-11-26T19:21:59.320Z,87.00
2022-11-26T19:24:26.558Z,86.91
2022-11-26T19:26:57.423Z,86.88
2022-11-26T19:29:29.089Z,87.15
2022-11-26T19:31:59.882Z,87.29
2022-11-26T19:34:32.133Z,87.35
2022-11-26T19:37:02.635Z,87.07
2022-11-26T19:39:33.503Z,86.12
2022-11-26T19:42:04.211Z,86.54
2022-11-26T19:44:36.216Z,86.78
2022-11-26T19:47:06.907Z,87.13
2022-11-26T19:49:37.602Z,87.34
2022-11-26T19:52:09.916Z,87.57
2022-11-26T19:54:40.344Z,87.67
2022-11-26T19:57:10.862Z,87.24
2022-11-26T19:59:41.630Z,86.75
2022-11-26T20:02:12.296Z,86.21
2022-11-26T20:04:43.008Z,86.67
2022-11-26T20:07:14.528Z,86.90
2022-11-26T20:09:46.773Z,86.78
2022-11-26T20:12:17.250Z,86.93
2022-11-26T20:14:48.809Z,86.25
2022-11-26T20:17:20.898Z,86.19
2022-11-26T20:19:52.006Z,86.54
2022-11-26T20:22:27.840Z,86.44
2022-11-26T20:24:56.744Z,86.57
2022-11-26T20:27:28.770Z,86.91
2022-11-26T20:29:59.675Z,86.79
2022-11-26T20:32:34.919Z,87.00
2022-11-26T20:35:06.936Z,87.30
2022-11-26T20:37:37.686Z,86.84
2022-11-26T20:40:09.632Z,86.98
2022-11-26T20:42:40.776Z,86.91
2022-11-26T20:45:11.377Z,87.31
2022-11-26T20:47:44.683Z,87.45
2022-11-26T20:50:16.868Z,87.66
2022-11-26T20:52:50.041Z,87.40
2022-11-26T20:55:22.115Z,87.60
2022-11-26T20:57:52.794Z,87.97
2022-11-26T21:00:27.522Z,88.16
2022-11-26T21:02:56.078Z,88.37
2022-11-26T21:05:28.035Z,88.16
2022-11-26T21:07:58.565Z,87.80
2022-11-26T21:10:29.093Z,87.98
2022-11-26T21:13:01.509Z,88.31
2022-11-26T21:15:31.711Z,88.48
2022-11-26T21:18:02.525Z,88.11
2022-11-26T21:20:36.183Z,88.17
2022-11-26T21:23:05.366Z,87.66
2022-11-26T21:25:41.571Z,87.72
2022-11-26T21:28:15.986Z,87.62
2022-11-26T21:30:47.789Z,87.85
2022-11-26T21:33:19.982Z,87.07
2022-11-26T21:35:50.532Z,87.44
2022-11-26T21:38:26.516Z,86.93
2022-11-26T21:40:53.574Z,87.26
2022-11-26T21:43:24.019Z,87.32
2022-11-26T21:45:54.780Z,87.70
2022-11-26T21:48:25.285Z,87.55
2022-11-26T21:50:55.818Z,87.79
2022-11-26T21:53:26.339Z,87.75
2022-11-26T21:55:56.874Z,87.85
2022-11-26T21:58:27.825Z,87.32
2022-11-26T22:00:58.958Z,87.62
2022-11-26T22:03:29.574Z,87.37
2022-11-26T22:06:01.735Z,87.11
2022-11-26T22:08:34.868Z,87.04
2022-11-26T22:11:14.436Z,87.10
2022-11-26T22:13:47.025Z,87.09
2022-11-26T22:16:19.905Z,87.07
2022-11-26T22:18:51.723Z,87.15
2022-11-26T22:21:25.170Z,87.10
2022-11-26T22:23:55.997Z,86.72
2022-11-26T22:26:27.008Z,87.04
2022-11-26T22:28:59.157Z,87.23
2022-11-26T22:31:37.580Z,87.29
2022-11-26T22:34:13.984Z,87.64
2022-11-26T22:36:45.588Z,87.61
2022-11-26T22:39:19.904Z,87.29
2022-11-26T22:41:52.306Z,87.49
2022-11-26T22:44:24.131Z,87.88
2022-11-26T22:46:55.617Z,87.56
2022-11-26T22:49:28.303Z,87.55
2022-11-26T22:51:58.812Z,87.72
2022-11-26T22:54:29.652Z,87.35
2022-11-26T22:57:00.185Z,87.82
2022-11-26T22:59:35.044Z,87.65
2022-11-26T23:02:07.269Z,87.33
2022-11-26T23:04:43.994Z,87.22
2022-11-26T23:07:18.524Z,87.48
2022-11-26T23:09:49.442Z,87.82
2022-11-26T23:12:23.490Z,88.02
2022-11-26T23:14:54.251Z,87.81
2022-11-26T23:17:27.300Z,87.40
2022-11-26T23:19:59.626Z,87.01
2022-11-26T23:22:30.360Z,87.52
2022-11-26T23:25:02.674Z,87.46
2022-11-26T23:27:35.955Z,87.25
2022-11-26T23:30:08.762Z,87.02
2022-11-26T23:32:41.041Z,87.25
2022-11-26T23:35:11.581Z,87.22
2022-11-26T23:37:45.850Z,87.41
2022-11-26T23:40:18.101Z,87.67
2022-11-26T23:42:51.063Z,87.56
2022-11-26T23:45:23.624Z,87.62
2022-11-26T23:47:59.188Z,87.62
2022-11-26T23:50:36.479Z,87.90
2022-11-26T23:53:08.674Z,88.20
2022-11-26T23:55:40.224Z,88.15
2022-11-26T23:58:10.968Z,88.69
